sensor_id;sensor_type;location;lat;lon;timestamp;temperature;humidity
19261;DHT22;9764;48.114;11.670;2023-01-05T00:01:32;19.60;90.70
19261;DHT22;9764;48.114;11.670;2023-01-05T00:04:00;19.60;90.70
19261;DHT22;9764;48.114;11.670;2023-01-05T00:06:30;19.60;90.70
19261;DHT22;9764;48.114;11.670;2023-01-05T00:09:00;19.60;90.80
19261;DHT22;9764;48.114;11.670;2023-01-05T00:11:28;19.60;90.80
19261;DHT22;9764;48.114;11.670;2023-01-05T00:14:15;19.60;90.80
19261;DHT22;9764;48.114;11.670;2023-01-05T00:17:02;19.60;90.80
19261;DHT22;9764;48.114;11.670;2023-01-05T00:19:48;19.60;90.80
19261;DHT22;9764;48.114;11.670;2023-01-05T00:22:39;19.60;90.80
19261;DHT22;9764;48.114;11.670;2023-01-05T00:25:11;19.60;90.80
19261;DHT22;9764;48.114;11.670;2023-01-05T00:27:41;19.50;90.80
19261;DHT22;9764;48.114;11.670;2023-01-05T00:30:11;19.60;90.80
19261;DHT22;9764;48.114;11.670;2023-01-05T00:32:40;19.70;90.70
19261;DHT22;9764;48.114;11.670;2023-01-05T00:35:09;19.60;90.70
19261;DHT22;9764;48.114;11.670;2023-01-05T00:37:38;19.60;90.80
19261;DHT22;9764;48.114;11.670;2023-01-05T00:40:10;19.60;90.80
19261;DHT22;9764;48.114;11.670;2023-01-05T00:42:39;19.60;90.90
19261;DHT22;9764;48.114;11.670;2023-01-05T00:45:10;19.60;90.70
19261;DHT22;9764;48.114;11.670;2023-01-05T00:47:38;19.60;90.80
19261;DHT22;9764;48.114;11.670;2023-01-05T00:50:08;19.60;90.80
19261;DHT22;9764;48.114;11.670;2023-01-05T00:52:37;19.60;90.80
19261;DHT22;9764;48.114;11.670;2023-01-05T00:55:06;19.60;91.20
19261;DHT22;9764;48.114;11.670;2023-01-05T00:57:36;19.60;90.80
19261;DHT22;9764;48.114;11.670;2023-01-05T01:00:06;19.60;90.70
19261;DHT22;9764;48.114;11.670;2023-01-05T01:02:35;19.60;90.70
19261;DHT22;9764;48.114;11.670;2023-01-05T01:05:04;19.60;90.80
19261;DHT22;9764;48.114;11.670;2023-01-05T01:07:32;19.60;90.80
19261;DHT22;9764;48.114;11.670;2023-01-05T01:10:04;19.60;90.80
19261;DHT22;9764;48.114;11.670;2023-01-05T01:12:33;19.60;90.80
19261;DHT22;9764;48.114;11.670;2023-01-05T01:15:03;19.60;90.70
19261;DHT22;9764;48.114;11.670;2023-01-05T01:17:32;19.60;90.70
19261;DHT22;9764;48.114;11.670;2023-01-05T01:20:00;19.60;90.70
19261;DHT22;9764;48.114;11.670;2023-01-05T01:22:29;19.70;90.70
19261;DHT22;9764;48.114;11.670;2023-01-05T01:24:59;19.60;90.80
19261;DHT22;9764;48.114;11.670;2023-01-05T01:27:28;19.60;90.80
19261;DHT22;9764;48.114;11.670;2023-01-05T01:29:57;19.60;90.80
19261;DHT22;9764;48.114;11.670;2023-01-05T01:32:26;19.60;90.80
19261;DHT22;9764;48.114;11.670;2023-01-05T01:34:54;19.60;90.80
19261;DHT22;9764;48.114;11.670;2023-01-05T01:37:23;19.60;90.80
19261;DHT22;9764;48.114;11.670;2023-01-05T01:39:54;19.50;90.80
19261;DHT22;9764;48.114;11.670;2023-01-05T01:42:23;19.60;90.80
19261;DHT22;9764;48.114;11.670;2023-01-05T01:44:54;19.60;90.80
19261;DHT22;9764;48.114;11.670;2023-01-05T01:47:36;19.60;90.70
19261;DHT22;9764;48.114;11.670;2023-01-05T01:50:10;19.60;90.70
19261;DHT22;9764;48.114;11.670;2023-01-05T01:52:41;19.60;90.70
19261;DHT22;9764;48.114;11.670;2023-01-05T01:55:10;19.60;90.80
19261;DHT22;9764;48.114;11.670;2023-01-05T01:57:39;19.60;90.80
19261;DHT22;9764;48.114;11.670;2023-01-05T02:00:09;19.60;90.80
19261;DHT22;9764;48.114;11.670;2023-01-05T02:02:45;19.60;90.80
19261;DHT22;9764;48.114;11.670;2023-01-05T02:05:21;19.50;90.80
19261;DHT22;9764;48.114;11.670;2023-01-05T02:07:49;19.60;90.80
19261;DHT22;9764;48.114;11.670;2023-01-05T02:10:20;19.60;90.80
19261;DHT22;9764;48.114;11.670;2023-01-05T02:13:04;19.60;90.80
19261;DHT22;9764;48.114;11.670;2023-01-05T02:15:45;19.60;90.80
19261;DHT22;9764;48.114;11.670;2023-01-05T02:18:31;19.60;90.80
19261;DHT22;9764;48.114;11.670;2023-01-05T02:21:10;19.50;90.80
19261;DHT22;9764;48.114;11.670;2023-01-05T02:27:08;19.50;90.80
19261;DHT22;9764;48.114;11.670;2023-01-05T02:33:05;19.50;90.80
19261;DHT22;9764;48.114;11.670;2023-01-05T02:35:39;19.50;90.80
19261;DHT22;9764;48.114;11.670;2023-01-05T02:38:14;19.50;90.80
19261;DHT22;9764;48.114;11.670;2023-01-05T02:40:52;19.60;90.80
19261;DHT22;9764;48.114;11.670;2023-01-05T02:43:22;19.60;90.80
19261;DHT22;9764;48.114;11.670;2023-01-05T02:45:51;19.50;90.80
19261;DHT22;9764;48.114;11.670;2023-01-05T02:48:21;19.60;90.80
19261;DHT22;9764;48.114;11.670;2023-01-05T02:50:52;19.60;90.80
19261;DHT22;9764;48.114;11.670;2023-01-05T02:53:26;19.50;90.80
19261;DHT22;9764;48.114;11.670;2023-01-05T02:56:01;19.50;90.80
19261;DHT22;9764;48.114;11.670;2023-01-05T02:58:37;19.50;90.90
19261;DHT22;9764;48.114;11.670;2023-01-05T03:01:12;19.50;90.90
19261;DHT22;9764;48.114;11.670;2023-01-05T03:03:46;19.50;91.20
19261;DHT22;9764;48.114;11.670;2023-01-05T03:06:19;19.50;90.80
19261;DHT22;9764;48.114;11.670;2023-01-05T03:08:51;19.50;90.80
19261;DHT22;9764;48.114;11.670;2023-01-05T03:11:26;19.50;90.80
19261;DHT22;9764;48.114;11.670;2023-01-05T03:14:15;19.50;90.80
19261;DHT22;9764;48.114;11.670;2023-01-05T03:16:49;19.50;90.90
19261;DHT22;9764;48.114;11.670;2023-01-05T03:19:19;19.40;90.90
19261;DHT22;9764;48.114;11.670;2023-01-05T03:22:06;19.50;90.90
19261;DHT22;9764;48.114;11.670;2023-01-05T03:24:53;19.50;90.90
19261;DHT22;9764;48.114;11.670;2023-01-05T03:27:42;19.50;90.90
19261;DHT22;9764;48.114;11.670;2023-01-05T03:30:35;19.50;90.90
19261;DHT22;9764;48.114;11.670;2023-01-05T03:33:31;19.50;91.20
19261;DHT22;9764;48.114;11.670;2023-01-05T03:36:22;19.50;90.90
19261;DHT22;9764;48.114;11.670;2023-01-05T03:38:55;19.50;90.80
19261;DHT22;9764;48.114;11.670;2023-01-05T03:41:29;19.50;90.80
19261;DHT22;9764;48.114;11.670;2023-01-05T03:43:57;19.50;90.80
19261;DHT22;9764;48.114;11.670;2023-01-05T03:46:30;19.60;91.10
19261;DHT22;9764;48.114;11.670;2023-01-05T03:48:58;19.50;90.80
19261;DHT22;9764;48.114;11.670;2023-01-05T03:51:28;19.50;90.90
19261;DHT22;9764;48.114;11.670;2023-01-05T03:54:02;19.50;90.90
19261;DHT22;9764;48.114;11.670;2023-01-05T03:56:32;19.50;90.90
19261;DHT22;9764;48.114;11.670;2023-01-05T03:59:01;19.60;90.80
19261;DHT22;9764;48.114;11.670;2023-01-05T04:01:32;19.50;90.90
19261;DHT22;9764;48.114;11.670;2023-01-05T04:04:01;19.50;90.80
19261;DHT22;9764;48.114;11.670;2023-01-05T04:06:31;19.50;90.90
19261;DHT22;9764;48.114;11.670;2023-01-05T04:08:59;19.60;90.80
19261;DHT22;9764;48.114;11.670;2023-01-05T04:11:31;19.50;90.80
19261;DHT22;9764;48.114;11.670;2023-01-05T04:14:03;19.50;90.90
19261;DHT22;9764;48.114;11.670;2023-01-05T04:16:33;19.60;90.90
19261;DHT22;9764;48.114;11.670;2023-01-05T04:19:23;19.60;90.80
19261;DHT22;9764;48.114;11.670;2023-01-05T04:21:55;19.50;90.80
19261;DHT22;9764;48.114;11.670;2023-01-05T04:24:24;19.50;90.80
19261;DHT22;9764;48.114;11.670;2023-01-05T04:26:52;19.50;90.90
19261;DHT22;9764;48.114;11.670;2023-01-05T04:29:25;19.50;90.90
19261;DHT22;9764;48.114;11.670;2023-01-05T04:31:54;19.50;91.00
19261;DHT22;9764;48.114;11.670;2023-01-05T04:34:23;19.50;91.00
19261;DHT22;9764;48.114;11.670;2023-01-05T04:36:55;19.50;90.90
19261;DHT22;9764;48.114;11.670;2023-01-05T04:39:24;19.50;90.90
19261;DHT22;9764;48.114;11.670;2023-01-05T04:41:54;19.60;90.80
19261;DHT22;9764;48.114;11.670;2023-01-05T04:44:23;19.60;90.80
19261;DHT22;9764;48.114;11.670;2023-01-05T04:46:53;19.50;90.90
19261;DHT22;9764;48.114;11.670;2023-01-05T04:49:23;19.50;90.90
19261;DHT22;9764;48.114;11.670;2023-01-05T04:51:52;19.60;90.90
19261;DHT22;9764;48.114;11.670;2023-01-05T04:54:23;19.50;90.90
19261;DHT22;9764;48.114;11.670;2023-01-05T04:56:52;19.50;90.90
19261;DHT22;9764;48.114;11.670;2023-01-05T04:59:20;19.50;91.00
19261;DHT22;9764;48.114;11.670;2023-01-05T05:01:50;19.50;91.00
19261;DHT22;9764;48.114;11.670;2023-01-05T05:04:19;19.50;90.90
19261;DHT22;9764;48.114;11.670;2023-01-05T05:06:49;19.50;91.00
19261;DHT22;9764;48.114;11.670;2023-01-05T05:09:20;19.60;90.90
19261;DHT22;9764;48.114;11.670;2023-01-05T05:11:50;19.50;90.90
19261;DHT22;9764;48.114;11.670;2023-01-05T05:14:21;19.60;91.00
19261;DHT22;9764;48.114;11.670;2023-01-05T05:16:56;19.60;90.90
19261;DHT22;9764;48.114;11.670;2023-01-05T05:19:24;19.50;91.00
19261;DHT22;9764;48.114;11.670;2023-01-05T05:21:53;19.50;91.10
19261;DHT22;9764;48.114;11.670;2023-01-05T05:24:23;19.50;91.10
19261;DHT22;9764;48.114;11.670;2023-01-05T05:26:53;19.50;91.20
19261;DHT22;9764;48.114;11.670;2023-01-05T05:29:23;19.50;91.20
19261;DHT22;9764;48.114;11.670;2023-01-05T05:31:51;19.40;91.20
19261;DHT22;9764;48.114;11.670;2023-01-05T05:34:20;19.40;91.20
19261;DHT22;9764;48.114;11.670;2023-01-05T05:36:48;19.40;91.30
19261;DHT22;9764;48.114;11.670;2023-01-05T05:39:16;19.40;91.20
19261;DHT22;9764;48.114;11.670;2023-01-05T05:41:45;19.40;91.30
19261;DHT22;9764;48.114;11.670;2023-01-05T05:44:14;19.50;91.30
19261;DHT22;9764;48.114;11.670;2023-01-05T05:46:43;19.50;91.30
19261;DHT22;9764;48.114;11.670;2023-01-05T05:49:11;19.50;91.30
19261;DHT22;9764;48.114;11.670;2023-01-05T05:51:39;19.50;91.30
19261;DHT22;9764;48.114;11.670;2023-01-05T05:54:08;19.50;91.30
19261;DHT22;9764;48.114;11.670;2023-01-05T05:56:36;19.50;91.30
19261;DHT22;9764;48.114;11.670;2023-01-05T05:59:04;19.50;91.20
19261;DHT22;9764;48.114;11.670;2023-01-05T06:01:34;19.50;91.20
19261;DHT22;9764;48.114;11.670;2023-01-05T06:04:03;19.50;91.30
19261;DHT22;9764;48.114;11.670;2023-01-05T06:06:31;19.50;91.30
19261;DHT22;9764;48.114;11.670;2023-01-05T06:09:00;19.50;91.30
19261;DHT22;9764;48.114;11.670;2023-01-05T06:11:28;19.40;91.30
19261;DHT22;9764;48.114;11.670;2023-01-05T06:13:56;19.50;91.30
19261;DHT22;9764;48.114;11.670;2023-01-05T06:16:25;19.40;91.30
19261;DHT22;9764;48.114;11.670;2023-01-05T06:18:54;19.50;91.30
19261;DHT22;9764;48.114;11.670;2023-01-05T06:21:23;19.50;91.30
19261;DHT22;9764;48.114;11.670;2023-01-05T06:23:51;19.50;91.40
19261;DHT22;9764;48.114;11.670;2023-01-05T06:26:19;19.50;91.30
19261;DHT22;9764;48.114;11.670;2023-01-05T06:28:48;19.50;91.30
19261;DHT22;9764;48.114;11.670;2023-01-05T06:31:17;19.50;91.30
19261;DHT22;9764;48.114;11.670;2023-01-05T06:33:46;19.50;91.30
19261;DHT22;9764;48.114;11.670;2023-01-05T06:36:16;19.50;91.30
19261;DHT22;9764;48.114;11.670;2023-01-05T06:38:44;19.50;91.30
19261;DHT22;9764;48.114;11.670;2023-01-05T06:41:12;19.50;91.30
19261;DHT22;9764;48.114;11.670;2023-01-05T06:43:41;19.40;91.30
19261;DHT22;9764;48.114;11.670;2023-01-05T06:46:09;19.50;91.30
19261;DHT22;9764;48.114;11.670;2023-01-05T06:48:37;19.50;91.30
19261;DHT22;9764;48.114;11.670;2023-01-05T06:51:06;19.50;91.30
19261;DHT22;9764;48.114;11.670;2023-01-05T06:53:35;19.50;91.30
19261;DHT22;9764;48.114;11.670;2023-01-05T06:56:04;19.50;91.30
19261;DHT22;9764;48.114;11.670;2023-01-05T06:58:33;19.50;91.20
19261;DHT22;9764;48.114;11.670;2023-01-05T07:01:01;19.50;91.30
19261;DHT22;9764;48.114;11.670;2023-01-05T07:03:30;19.50;91.20
19261;DHT22;9764;48.114;11.670;2023-01-05T07:05:58;19.50;91.20
19261;DHT22;9764;48.114;11.670;2023-01-05T07:08:27;19.50;91.20
19261;DHT22;9764;48.114;11.670;2023-01-05T07:10:56;19.50;91.20
19261;DHT22;9764;48.114;11.670;2023-01-05T07:13:25;19.60;91.20
19261;DHT22;9764;48.114;11.670;2023-01-05T07:15:53;19.60;91.20
19261;DHT22;9764;48.114;11.670;2023-01-05T07:18:21;19.50;91.20
19261;DHT22;9764;48.114;11.670;2023-01-05T07:20:50;19.50;91.30
19261;DHT22;9764;48.114;11.670;2023-01-05T07:23:18;19.50;91.60
19261;DHT22;9764;48.114;11.670;2023-01-05T07:25:46;19.60;91.20
19261;DHT22;9764;48.114;11.670;2023-01-05T07:28:17;19.60;91.20
19261;DHT22;9764;48.114;11.670;2023-01-05T07:30:50;19.60;91.20
19261;DHT22;9764;48.114;11.670;2023-01-05T07:33:18;19.50;91.20
19261;DHT22;9764;48.114;11.670;2023-01-05T07:35:47;19.50;91.20
19261;DHT22;9764;48.114;11.670;2023-01-05T07:38:15;19.60;91.30
19261;DHT22;9764;48.114;11.670;2023-01-05T07:40:43;19.50;91.20
19261;DHT22;9764;48.114;11.670;2023-01-05T07:43:12;19.60;91.20
19261;DHT22;9764;48.114;11.670;2023-01-05T07:45:41;19.60;91.20
19261;DHT22;9764;48.114;11.670;2023-01-05T07:48:10;19.50;91.30
19261;DHT22;9764;48.114;11.670;2023-01-05T07:50:38;19.50;91.40
19261;DHT22;9764;48.114;11.670;2023-01-05T07:53:06;19.50;91.40
19261;DHT22;9764;48.114;11.670;2023-01-05T07:55:35;19.50;91.50
19261;DHT22;9764;48.114;11.670;2023-01-05T07:58:03;19.50;91.60
19261;DHT22;9764;48.114;11.670;2023-01-05T08:00:31;19.50;91.60
19261;DHT22;9764;48.114;11.670;2023-01-05T08:03:02;19.60;91.60
19261;DHT22;9764;48.114;11.670;2023-01-05T08:05:30;19.60;91.70
19261;DHT22;9764;48.114;11.670;2023-01-05T08:08:01;19.60;91.70
19261;DHT22;9764;48.114;11.670;2023-01-05T08:10:29;19.60;91.70
19261;DHT22;9764;48.114;11.670;2023-01-05T08:13:02;19.60;91.70
19261;DHT22;9764;48.114;11.670;2023-01-05T08:15:49;19.60;91.70
19261;DHT22;9764;48.114;11.670;2023-01-05T08:18:20;19.70;91.70
19261;DHT22;9764;48.114;11.670;2023-01-05T08:20:50;19.70;91.70
19261;DHT22;9764;48.114;11.670;2023-01-05T08:23:19;19.70;91.70
19261;DHT22;9764;48.114;11.670;2023-01-05T08:25:52;19.70;91.80
19261;DHT22;9764;48.114;11.670;2023-01-05T08:28:21;19.70;91.80
19261;DHT22;9764;48.114;11.670;2023-01-05T08:31:00;19.70;91.80
19261;DHT22;9764;48.114;11.670;2023-01-05T08:33:30;19.70;91.80
19261;DHT22;9764;48.114;11.670;2023-01-05T08:35:58;19.70;92.20
19261;DHT22;9764;48.114;11.670;2023-01-05T08:38:27;19.70;91.90
19261;DHT22;9764;48.114;11.670;2023-01-05T08:40:57;19.80;91.90
19261;DHT22;9764;48.114;11.670;2023-01-05T08:43:26;19.80;91.90
19261;DHT22;9764;48.114;11.670;2023-01-05T08:45:55;19.80;92.00
19261;DHT22;9764;48.114;11.670;2023-01-05T08:48:23;19.70;92.00
19261;DHT22;9764;48.114;11.670;2023-01-05T08:50:53;19.80;92.00
19261;DHT22;9764;48.114;11.670;2023-01-05T08:53:21;19.80;92.10
19261;DHT22;9764;48.114;11.670;2023-01-05T08:55:49;19.80;92.00
19261;DHT22;9764;48.114;11.670;2023-01-05T08:58:18;19.70;92.00
19261;DHT22;9764;48.114;11.670;2023-01-05T09:00:46;19.80;92.00
19261;DHT22;9764;48.114;11.670;2023-01-05T09:03:14;19.80;92.00
19261;DHT22;9764;48.114;11.670;2023-01-05T09:05:43;19.80;92.10
19261;DHT22;9764;48.114;11.670;2023-01-05T09:08:13;19.80;92.10
19261;DHT22;9764;48.114;11.670;2023-01-05T09:10:41;19.80;92.30
19261;DHT22;9764;48.114;11.670;2023-01-05T09:13:09;19.80;92.00
19261;DHT22;9764;48.114;11.670;2023-01-05T09:15:38;19.80;92.00
19261;DHT22;9764;48.114;11.670;2023-01-05T09:18:06;19.90;92.00
19261;DHT22;9764;48.114;11.670;2023-01-05T09:20:34;19.90;92.10
19261;DHT22;9764;48.114;11.670;2023-01-05T09:23:06;19.90;92.00
19261;DHT22;9764;48.114;11.670;2023-01-05T09:25:37;19.90;92.00
19261;DHT22;9764;48.114;11.670;2023-01-05T09:28:05;19.90;92.10
19261;DHT22;9764;48.114;11.670;2023-01-05T09:30:34;19.90;92.10
19261;DHT22;9764;48.114;11.670;2023-01-05T09:33:13;20.00;92.00
19261;DHT22;9764;48.114;11.670;2023-01-05T09:35:41;19.90;92.10
19261;DHT22;9764;48.114;11.670;2023-01-05T09:38:10;19.90;92.10
19261;DHT22;9764;48.114;11.670;2023-01-05T09:40:42;19.90;92.00
19261;DHT22;9764;48.114;11.670;2023-01-05T09:43:14;19.90;92.50
19261;DHT22;9764;48.114;11.670;2023-01-05T09:45:47;19.90;92.10
19261;DHT22;9764;48.114;11.670;2023-01-05T09:48:17;19.90;92.20
19261;DHT22;9764;48.114;11.670;2023-01-05T09:50:49;19.90;92.00
19261;DHT22;9764;48.114;11.670;2023-01-05T09:53:22;20.00;92.10
19261;DHT22;9764;48.114;11.670;2023-01-05T09:55:53;19.90;92.20
19261;DHT22;9764;48.114;11.670;2023-01-05T09:58:24;19.90;92.20
19261;DHT22;9764;48.114;11.670;2023-01-05T10:01:05;20.00;92.20
19261;DHT22;9764;48.114;11.670;2023-01-05T10:03:38;20.00;92.20
19261;DHT22;9764;48.114;11.670;2023-01-05T10:06:29;20.00;92.30
19261;DHT22;9764;48.114;11.670;2023-01-05T10:09:02;20.00;92.10
19261;DHT22;9764;48.114;11.670;2023-01-05T10:11:38;20.00;92.10
19261;DHT22;9764;48.114;11.670;2023-01-05T10:14:29;20.10;92.10
19261;DHT22;9764;48.114;11.670;2023-01-05T10:16:58;20.00;92.30
19261;DHT22;9764;48.114;11.670;2023-01-05T10:19:53;20.10;92.00
19261;DHT22;9764;48.114;11.670;2023-01-05T10:22:30;20.10;92.20
19261;DHT22;9764;48.114;11.670;2023-01-05T10:25:11;20.10;92.30
19261;DHT22;9764;48.114;11.670;2023-01-05T10:27:46;20.00;92.10
19261;DHT22;9764;48.114;11.670;2023-01-05T10:30:24;20.10;92.30
19261;DHT22;9764;48.114;11.670;2023-01-05T10:32:59;20.10;92.20
19261;DHT22;9764;48.114;11.670;2023-01-05T10:35:54;20.10;92.30
19261;DHT22;9764;48.114;11.670;2023-01-05T10:38:41;20.10;92.20
19261;DHT22;9764;48.114;11.670;2023-01-05T10:41:16;20.10;92.10
19261;DHT22;9764;48.114;11.670;2023-01-05T10:44:26;20.10;92.30
19261;DHT22;9764;48.114;11.670;2023-01-05T10:46:59;20.20;92.10
19261;DHT22;9764;48.114;11.670;2023-01-05T10:49:29;20.20;92.10
19261;DHT22;9764;48.114;11.670;2023-01-05T10:51:59;20.20;92.10
19261;DHT22;9764;48.114;11.670;2023-01-05T10:54:35;20.20;92.20
19261;DHT22;9764;48.114;11.670;2023-01-05T10:57:30;20.20;92.20
19261;DHT22;9764;48.114;11.670;2023-01-05T11:00:13;20.20;92.30
19261;DHT22;9764;48.114;11.670;2023-01-05T11:02:47;20.20;92.30
19261;DHT22;9764;48.114;11.670;2023-01-05T11:05:25;20.20;92.20
19261;DHT22;9764;48.114;11.670;2023-01-05T11:07:55;20.20;92.10
19261;DHT22;9764;48.114;11.670;2023-01-05T11:10:28;20.20;92.60
19261;DHT22;9764;48.114;11.670;2023-01-05T11:13:01;20.20;92.20
19261;DHT22;9764;48.114;11.670;2023-01-05T11:15:40;20.20;92.20
19261;DHT22;9764;48.114;11.670;2023-01-05T11:18:21;20.20;92.30
19261;DHT22;9764;48.114;11.670;2023-01-05T11:21:06;20.20;92.20
19261;DHT22;9764;48.114;11.670;2023-01-05T11:23:37;20.30;92.30
19261;DHT22;9764;48.114;11.670;2023-01-05T11:26:26;20.20;92.50
19261;DHT22;9764;48.114;11.670;2023-01-05T11:31:51;20.20;92.30
19261;DHT22;9764;48.114;11.670;2023-01-05T11:34:34;20.20;92.70
19261;DHT22;9764;48.114;11.670;2023-01-05T11:37:05;20.30;92.40
19261;DHT22;9764;48.114;11.670;2023-01-05T11:39:38;20.20;92.30
19261;DHT22;9764;48.114;11.670;2023-01-05T11:42:11;20.20;92.40
19261;DHT22;9764;48.114;11.670;2023-01-05T11:44:49;20.30;92.30
19261;DHT22;9764;48.114;11.670;2023-01-05T11:47:26;20.30;92.40
19261;DHT22;9764;48.114;11.670;2023-01-05T11:50:02;20.30;92.40
19261;DHT22;9764;48.114;11.670;2023-01-05T11:52:37;20.30;92.40
19261;DHT22;9764;48.114;11.670;2023-01-05T11:55:29;20.30;92.30
19261;DHT22;9764;48.114;11.670;2023-01-05T11:58:13;20.30;92.40
19261;DHT22;9764;48.114;11.670;2023-01-05T12:03:56;20.30;92.40
19261;DHT22;9764;48.114;11.670;2023-01-05T12:09:33;20.30;92.40
19261;DHT22;9764;48.114;11.670;2023-01-05T12:12:24;20.30;92.40
19261;DHT22;9764;48.114;11.670;2023-01-05T12:17:55;20.30;92.40
19261;DHT22;9764;48.114;11.670;2023-01-05T12:20:50;20.30;92.40
19261;DHT22;9764;48.114;11.670;2023-01-05T12:23:50;20.30;92.40
19261;DHT22;9764;48.114;11.670;2023-01-05T12:26:25;20.40;92.40
19261;DHT22;9764;48.114;11.670;2023-01-05T12:29:26;20.30;92.50
19261;DHT22;9764;48.114;11.670;2023-01-05T12:32:30;20.30;92.50
19261;DHT22;9764;48.114;11.670;2023-01-05T12:35:40;20.40;92.60
19261;DHT22;9764;48.114;11.670;2023-01-05T12:38:39;20.40;92.50
19261;DHT22;9764;48.114;11.670;2023-01-05T12:41:42;20.40;92.70
19261;DHT22;9764;48.114;11.670;2023-01-05T12:44:28;20.40;92.60
19261;DHT22;9764;48.114;11.670;2023-01-05T12:47:15;20.40;92.60
19261;DHT22;9764;48.114;11.670;2023-01-05T12:49:49;20.40;92.50
19261;DHT22;9764;48.114;11.670;2023-01-05T12:52:23;20.40;92.50
19261;DHT22;9764;48.114;11.670;2023-01-05T12:55:01;20.40;92.50
19261;DHT22;9764;48.114;11.670;2023-01-05T12:57:34;20.40;92.50
19261;DHT22;9764;48.114;11.670;2023-01-05T13:00:07;20.40;92.60
19261;DHT22;9764;48.114;11.670;2023-01-05T13:02:40;20.40;92.60
19261;DHT22;9764;48.114;11.670;2023-01-05T13:05:17;20.50;92.90
19261;DHT22;9764;48.114;11.670;2023-01-05T13:07:51;20.50;92.90
19261;DHT22;9764;48.114;11.670;2023-01-05T13:10:26;20.50;92.80
19261;DHT22;9764;48.114;11.670;2023-01-05T13:12:57;20.60;92.80
19261;DHT22;9764;48.114;11.670;2023-01-05T13:15:29;20.60;92.80
19261;DHT22;9764;48.114;11.670;2023-01-05T13:18:07;20.50;92.80
19261;DHT22;9764;48.114;11.670;2023-01-05T13:20:39;20.60;92.90
19261;DHT22;9764;48.114;11.670;2023-01-05T13:23:13;20.60;92.90
19261;DHT22;9764;48.114;11.670;2023-01-05T13:25:49;20.60;92.90
19261;DHT22;9764;48.114;11.670;2023-01-05T13:28:20;20.60;92.90
19261;DHT22;9764;48.114;11.670;2023-01-05T13:31:17;20.60;93.00
19261;DHT22;9764;48.114;11.670;2023-01-05T13:34:05;20.60;93.00
19261;DHT22;9764;48.114;11.670;2023-01-05T13:36:51;20.60;93.00
19261;DHT22;9764;48.114;11.670;2023-01-05T13:39:43;20.70;93.10
19261;DHT22;9764;48.114;11.670;2023-01-05T13:42:29;20.70;93.10
19261;DHT22;9764;48.114;11.670;2023-01-05T13:45:31;20.70;93.10
19261;DHT22;9764;48.114;11.670;2023-01-05T13:48:33;20.70;93.20
19261;DHT22;9764;48.114;11.670;2023-01-05T13:51:35;20.70;93.10
19261;DHT22;9764;48.114;11.670;2023-01-05T13:54:11;20.70;93.20
19261;DHT22;9764;48.114;11.670;2023-01-05T13:56:42;20.70;93.20
19261;DHT22;9764;48.114;11.670;2023-01-05T13:59:23;20.70;93.20
19261;DHT22;9764;48.114;11.670;2023-01-05T14:02:25;20.70;93.20
19261;DHT22;9764;48.114;11.670;2023-01-05T14:04:57;20.70;93.20
19261;DHT22;9764;48.114;11.670;2023-01-05T14:07:26;20.70;93.20
19261;DHT22;9764;48.114;11.670;2023-01-05T14:09:56;20.70;93.20
19261;DHT22;9764;48.114;11.670;2023-01-05T14:12:46;20.60;92.60
19261;DHT22;9764;48.114;11.670;2023-01-05T14:15:41;20.60;92.70
19261;DHT22;9764;48.114;11.670;2023-01-05T14:18:10;20.50;92.80
19261;DHT22;9764;48.114;11.670;2023-01-05T14:20:42;20.50;92.70
19261;DHT22;9764;48.114;11.670;2023-01-05T14:23:55;20.60;92.70
19261;DHT22;9764;48.114;11.670;2023-01-05T14:27:04;20.60;92.80
19261;DHT22;9764;48.114;11.670;2023-01-05T14:30:18;20.60;92.60
19261;DHT22;9764;48.114;11.670;2023-01-05T14:32:52;20.60;92.70
19261;DHT22;9764;48.114;11.670;2023-01-05T14:35:28;20.60;92.70
19261;DHT22;9764;48.114;11.670;2023-01-05T14:38:00;20.50;92.60
19261;DHT22;9764;48.114;11.670;2023-01-05T14:40:36;20.60;92.60
19261;DHT22;9764;48.114;11.670;2023-01-05T14:43:18;20.60;92.60
19261;DHT22;9764;48.114;11.670;2023-01-05T14:46:12;20.50;92.50
19261;DHT22;9764;48.114;11.670;2023-01-05T14:48:57;20.50;92.90
19261;DHT22;9764;48.114;11.670;2023-01-05T14:51:27;20.50;92.90
19261;DHT22;9764;48.114;11.670;2023-01-05T14:53:57;20.50;92.90
19261;DHT22;9764;48.114;11.670;2023-01-05T14:56:30;20.50;92.90
19261;DHT22;9764;48.114;11.670;2023-01-05T14:59:14;20.50;92.90
19261;DHT22;9764;48.114;11.670;2023-01-05T15:01:51;20.50;92.90
19261;DHT22;9764;48.114;11.670;2023-01-05T15:04:24;20.50;93.10
19261;DHT22;9764;48.114;11.670;2023-01-05T15:07:07;20.50;93.10
19261;DHT22;9764;48.114;11.670;2023-01-05T15:10:04;20.50;93.20
19261;DHT22;9764;48.114;11.670;2023-01-05T15:12:53;20.60;93.20
19261;DHT22;9764;48.114;11.670;2023-01-05T15:15:41;20.50;93.10
19261;DHT22;9764;48.114;11.670;2023-01-05T15:21:54;20.60;93.20
19261;DHT22;9764;48.114;11.670;2023-01-05T15:25:23;20.60;93.50
19261;DHT22;9764;48.114;11.670;2023-01-05T15:28:11;20.60;93.20
19261;DHT22;9764;48.114;11.670;2023-01-05T15:31:01;20.60;93.30
19261;DHT22;9764;48.114;11.670;2023-01-05T15:33:38;20.60;93.50
19261;DHT22;9764;48.114;11.670;2023-01-05T15:36:16;20.60;93.50
19261;DHT22;9764;48.114;11.670;2023-01-05T15:38:49;20.70;93.30
19261;DHT22;9764;48.114;11.670;2023-01-05T15:41:19;20.70;93.30
19261;DHT22;9764;48.114;11.670;2023-01-05T15:43:48;20.70;93.30
19261;DHT22;9764;48.114;11.670;2023-01-05T15:46:19;20.70;93.10
19261;DHT22;9764;48.114;11.670;2023-01-05T15:48:50;20.70;93.20
19261;DHT22;9764;48.114;11.670;2023-01-05T15:51:25;20.70;93.30
19261;DHT22;9764;48.114;11.670;2023-01-05T15:53:56;20.70;93.30
19261;DHT22;9764;48.114;11.670;2023-01-05T15:56:30;20.70;93.60
19261;DHT22;9764;48.114;11.670;2023-01-05T15:58:59;20.70;93.40
19261;DHT22;9764;48.114;11.670;2023-01-05T16:01:27;20.70;93.30
19261;DHT22;9764;48.114;11.670;2023-01-05T16:04:05;20.70;93.30
19261;DHT22;9764;48.114;11.670;2023-01-05T16:06:36;20.80;93.40
19261;DHT22;9764;48.114;11.670;2023-01-05T16:09:13;20.80;93.40
19261;DHT22;9764;48.114;11.670;2023-01-05T16:11:46;20.80;93.40
19261;DHT22;9764;48.114;11.670;2023-01-05T16:14:21;20.70;93.30
19261;DHT22;9764;48.114;11.670;2023-01-05T16:16:58;20.70;93.40
19261;DHT22;9764;48.114;11.670;2023-01-05T16:19:31;20.70;93.30
19261;DHT22;9764;48.114;11.670;2023-01-05T16:22:05;20.70;93.30
19261;DHT22;9764;48.114;11.670;2023-01-05T16:24:55;20.80;93.40
19261;DHT22;9764;48.114;11.670;2023-01-05T16:27:25;20.70;93.30
19261;DHT22;9764;48.114;11.670;2023-01-05T16:29:54;20.70;93.40
19261;DHT22;9764;48.114;11.670;2023-01-05T16:32:39;20.70;93.40
19261;DHT22;9764;48.114;11.670;2023-01-05T16:35:32;20.70;93.70
19261;DHT22;9764;48.114;11.670;2023-01-05T16:38:12;20.70;93.50
19261;DHT22;9764;48.114;11.670;2023-01-05T16:41:05;20.70;93.60